sensor_id;sensor_type;location;lat;lon;timestamp;temperature;humidity
32506;DHT22;18955;51.224;8.482;2022-11-15T00:02:23;7.90;86.10
32506;DHT22;18955;51.224;8.482;2022-11-15T00:05:07;8.00;86.50
32506;DHT22;18955;51.224;8.482;2022-11-15T00:07:52;8.00;86.30
32506;DHT22;18955;51.224;8.482;2022-11-15T00:10:37;8.00;86.70
32506;DHT22;18955;51.224;8.482;2022-11-15T00:13:22;8.00;85.80
32506;DHT22;18955;51.224;8.482;2022-11-15T00:16:09;8.00;85.70
32506;DHT22;18955;51.224;8.482;2022-11-15T00:18:55;8.00;85.50
32506;DHT22;18955;51.224;8.482;2022-11-15T00:21:40;8.00;85.50
32506;DHT22;18955;51.224;8.482;2022-11-15T00:24:24;8.00;85.60
32506;DHT22;18955;51.224;8.482;2022-11-15T00:27:09;8.00;85.80
32506;DHT22;18955;51.224;8.482;2022-11-15T00:29:53;8.00;85.70
32506;DHT22;18955;51.224;8.482;2022-11-15T00:32:38;8.10;86.30
32506;DHT22;18955;51.224;8.482;2022-11-15T00:35:22;8.10;86.30
32506;DHT22;18955;51.224;8.482;2022-11-15T00:38:07;8.10;86.40
32506;DHT22;18955;51.224;8.482;2022-11-15T00:40:52;8.10;86.30
32506;DHT22;18955;51.224;8.482;2022-11-15T00:43:36;8.10;86.20
32506;DHT22;18955;51.224;8.482;2022-11-15T00:46:22;8.10;86.50
32506;DHT22;18955;51.224;8.482;2022-11-15T00:49:07;8.10;85.70
32506;DHT22;18955;51.224;8.482;2022-11-15T00:51:51;8.10;85.60
32506;DHT22;18955;51.224;8.482;2022-11-15T00:54:36;8.20;85.80
32506;DHT22;18955;51.224;8.482;2022-11-15T00:57:20;8.20;86.40
32506;DHT22;18955;51.224;8.482;2022-11-15T01:00:05;8.20;86.40
32506;DHT22;18955;51.224;8.482;2022-11-15T01:02:52;8.20;87.00
32506;DHT22;18955;51.224;8.482;2022-11-15T01:05:38;8.20;87.10
32506;DHT22;18955;51.224;8.482;2022-11-15T01:08:23;8.20;86.70
32506;DHT22;18955;51.224;8.482;2022-11-15T01:11:10;8.20;86.90
32506;DHT22;18955;51.224;8.482;2022-11-15T01:13:55;8.20;86.60
32506;DHT22;18955;51.224;8.482;2022-11-15T01:16:40;8.20;86.80
32506;DHT22;18955;51.224;8.482;2022-11-15T01:19:25;8.30;87.10
32506;DHT22;18955;51.224;8.482;2022-11-15T01:22:10;8.30;87.70
32506;DHT22;18955;51.224;8.482;2022-11-15T01:24:54;8.30;86.80
32506;DHT22;18955;51.224;8.482;2022-11-15T01:27:39;8.30;86.50
32506;DHT22;18955;51.224;8.482;2022-11-15T01:30:23;8.30;86.50
32506;DHT22;18955;51.224;8.482;2022-11-15T01:33:08;8.30;87.00
32506;DHT22;18955;51.224;8.482;2022-11-15T01:35:52;8.40;87.50
32506;DHT22;18955;51.224;8.482;2022-11-15T01:38:37;8.30;87.40
32506;DHT22;18955;51.224;8.482;2022-11-15T01:41:27;8.30;87.90
32506;DHT22;18955;51.224;8.482;2022-11-15T01:44:47;8.40;87.60
32506;DHT22;18955;51.224;8.482;2022-11-15T01:47:39;8.40;87.30
32506;DHT22;18955;51.224;8.482;2022-11-15T01:50:29;8.40;87.30
32506;DHT22;18955;51.224;8.482;2022-11-15T01:53:15;8.40;87.00
32506;DHT22;18955;51.224;8.482;2022-11-15T01:56:03;8.40;87.00
32506;DHT22;18955;51.224;8.482;2022-11-15T01:58:51;8.40;87.00
32506;DHT22;18955;51.224;8.482;2022-11-15T02:01:37;8.40;86.80
32506;DHT22;18955;51.224;8.482;2022-11-15T02:04:31;8.40;86.70
32506;DHT22;18955;51.224;8.482;2022-11-15T02:07:17;8.40;86.60
32506;DHT22;18955;51.224;8.482;2022-11-15T02:10:17;8.40;86.60
32506;DHT22;18955;51.224;8.482;2022-11-15T02:13:02;8.50;86.80
32506;DHT22;18955;51.224;8.482;2022-11-15T02:34:51;8.50;86.20
32506;DHT22;18955;51.224;8.482;2022-11-15T02:37:53;8.50;86.20
32506;DHT22;18955;51.224;8.482;2022-11-15T02:44:08;8.50;86.20
32506;DHT22;18955;51.224;8.482;2022-11-15T02:47:02;8.60;86.60
32506;DHT22;18955;51.224;8.482;2022-11-15T02:50:09;8.60;86.70
32506;DHT22;18955;51.224;8.482;2022-11-15T02:52:55;8.60;86.60
32506;DHT22;18955;51.224;8.482;2022-11-15T02:55:48;8.60;86.60
32506;DHT22;18955;51.224;8.482;2022-11-15T03:04:59;8.60;87.10
32506;DHT22;18955;51.224;8.482;2022-11-15T03:11:13;8.60;86.50
32506;DHT22;18955;51.224;8.482;2022-11-15T03:14:23;8.60;86.80
32506;DHT22;18955;51.224;8.482;2022-11-15T03:17:22;8.70;86.80
32506;DHT22;18955;51.224;8.482;2022-11-15T03:20:10;8.70;86.70
32506;DHT22;18955;51.224;8.482;2022-11-15T03:23:01;8.70;87.00
32506;DHT22;18955;51.224;8.482;2022-11-15T03:25:50;8.70;87.60
32506;DHT22;18955;51.224;8.482;2022-11-15T03:29:04;8.70;87.70
32506;DHT22;18955;51.224;8.482;2022-11-15T03:31:56;8.70;87.70
32506;DHT22;18955;51.224;8.482;2022-11-15T03:34:52;8.70;87.80
32506;DHT22;18955;51.224;8.482;2022-11-15T03:40:49;8.70;87.60
32506;DHT22;18955;51.224;8.482;2022-11-15T03:43:59;8.70;87.20
32506;DHT22;18955;51.224;8.482;2022-11-15T03:49:53;8.80;87.30
32506;DHT22;18955;51.224;8.482;2022-11-15T03:52:41;8.70;87.20
32506;DHT22;18955;51.224;8.482;2022-11-15T03:55:26;8.80;87.30
32506;DHT22;18955;51.224;8.482;2022-11-15T03:58:11;8.70;87.20
32506;DHT22;18955;51.224;8.482;2022-11-15T04:00:55;8.80;87.30
32506;DHT22;18955;51.224;8.482;2022-11-15T04:03:40;8.80;87.30
32506;DHT22;18955;51.224;8.482;2022-11-15T04:06:25;8.80;87.30
32506;DHT22;18955;51.224;8.482;2022-11-15T04:09:09;8.80;87.40
32506;DHT22;18955;51.224;8.482;2022-11-15T04:11:54;8.80;87.50
32506;DHT22;18955;51.224;8.482;2022-11-15T04:14:39;8.80;87.30
32506;DHT22;18955;51.224;8.482;2022-11-15T04:17:46;8.80;87.10
32506;DHT22;18955;51.224;8.482;2022-11-15T04:20:31;8.80;87.60
32506;DHT22;18955;51.224;8.482;2022-11-15T04:23:35;8.80;87.10
32506;DHT22;18955;51.224;8.482;2022-11-15T04:26:52;8.90;87.10
32506;DHT22;18955;51.224;8.482;2022-11-15T04:29:37;8.80;87.20
32506;DHT22;18955;51.224;8.482;2022-11-15T04:32:21;8.90;86.90
32506;DHT22;18955;51.224;8.482;2022-11-15T04:35:06;8.80;87.40
32506;DHT22;18955;51.224;8.482;2022-11-15T04:37:51;8.90;87.30
32506;DHT22;18955;51.224;8.482;2022-11-15T04:40:36;8.80;87.10
32506;DHT22;18955;51.224;8.482;2022-11-15T04:43:21;8.90;87.30
32506;DHT22;18955;51.224;8.482;2022-11-15T04:46:06;8.90;87.50
32506;DHT22;18955;51.224;8.482;2022-11-15T04:48:52;8.90;87.50
32506;DHT22;18955;51.224;8.482;2022-11-15T04:51:37;8.90;87.10
32506;DHT22;18955;51.224;8.482;2022-11-15T04:54:22;8.90;87.70
32506;DHT22;18955;51.224;8.482;2022-11-15T04:57:06;8.90;87.70
32506;DHT22;18955;51.224;8.482;2022-11-15T04:59:51;8.90;87.70
32506;DHT22;18955;51.224;8.482;2022-11-15T05:02:36;9.00;87.40
32506;DHT22;18955;51.224;8.482;2022-11-15T05:05:40;8.90;87.20
32506;DHT22;18955;51.224;8.482;2022-11-15T05:08:25;8.90;87.20
32506;DHT22;18955;51.224;8.482;2022-11-15T05:11:10;8.90;87.10
32506;DHT22;18955;51.224;8.482;2022-11-15T05:13:55;8.90;87.20
32506;DHT22;18955;51.224;8.482;2022-11-15T05:16:40;8.90;86.90
32506;DHT22;18955;51.224;8.482;2022-11-15T05:19:25;8.90;87.00
32506;DHT22;18955;51.224;8.482;2022-11-15T05:22:09;8.90;86.80
32506;DHT22;18955;51.224;8.482;2022-11-15T05:24:54;9.00;87.10
32506;DHT22;18955;51.224;8.482;2022-11-15T05:27:39;8.90;87.40
32506;DHT22;18955;51.224;8.482;2022-11-15T05:30:23;8.90;87.20
32506;DHT22;18955;51.224;8.482;2022-11-15T05:33:08;9.00;87.30
32506;DHT22;18955;51.224;8.482;2022-11-15T05:36:04;9.00;87.70
32506;DHT22;18955;51.224;8.482;2022-11-15T05:38:49;9.00;87.20
32506;DHT22;18955;51.224;8.482;2022-11-15T05:41:50;9.00;87.20
32506;DHT22;18955;51.224;8.482;2022-11-15T05:44:39;9.00;87.10
32506;DHT22;18955;51.224;8.482;2022-11-15T05:47:26;8.90;87.10
32506;DHT22;18955;51.224;8.482;2022-11-15T05:50:14;9.00;87.20
32506;DHT22;18955;51.224;8.482;2022-11-15T05:53:00;9.00;87.10
32506;DHT22;18955;51.224;8.482;2022-11-15T05:55:46;8.90;86.80
32506;DHT22;18955;51.224;8.482;2022-11-15T05:58:32;9.00;87.00
32506;DHT22;18955;51.224;8.482;2022-11-15T06:01:17;9.00;87.10
32506;DHT22;18955;51.224;8.482;2022-11-15T06:04:01;9.00;87.00
32506;DHT22;18955;51.224;8.482;2022-11-15T06:06:46;9.00;87.80
32506;DHT22;18955;51.224;8.482;2022-11-15T06:09:30;9.00;87.10
32506;DHT22;18955;51.224;8.482;2022-11-15T06:12:15;9.00;87.20
32506;DHT22;18955;51.224;8.482;2022-11-15T06:15:00;9.00;87.10
32506;DHT22;18955;51.224;8.482;2022-11-15T06:17:44;9.00;87.30
32506;DHT22;18955;51.224;8.482;2022-11-15T06:20:29;9.00;87.40
32506;DHT22;18955;51.224;8.482;2022-11-15T06:23:14;9.00;87.70
32506;DHT22;18955;51.224;8.482;2022-11-15T06:25:59;9.00;87.10
32506;DHT22;18955;51.224;8.482;2022-11-15T06:28:45;9.00;86.70
32506;DHT22;18955;51.224;8.482;2022-11-15T06:31:30;9.00;87.10
32506;DHT22;18955;51.224;8.482;2022-11-15T06:34:14;9.00;87.90
32506;DHT22;18955;51.224;8.482;2022-11-15T06:36:59;9.00;87.50
32506;DHT22;18955;51.224;8.482;2022-11-15T06:39:43;9.00;87.60
32506;DHT22;18955;51.224;8.482;2022-11-15T06:42:28;9.00;87.70
32506;DHT22;18955;51.224;8.482;2022-11-15T06:45:13;9.00;87.80
32506;DHT22;18955;51.224;8.482;2022-11-15T06:47:58;9.00;88.00
32506;DHT22;18955;51.224;8.482;2022-11-15T06:50:53;9.00;87.70
32506;DHT22;18955;51.224;8.482;2022-11-15T06:53:38;9.00;87.30
32506;DHT22;18955;51.224;8.482;2022-11-15T06:56:23;9.00;87.60
32506;DHT22;18955;51.224;8.482;2022-11-15T06:59:07;9.00;87.10
32506;DHT22;18955;51.224;8.482;2022-11-15T07:01:52;9.00;86.80
32506;DHT22;18955;51.224;8.482;2022-11-15T07:04:36;9.10;87.10
32506;DHT22;18955;51.224;8.482;2022-11-15T07:07:21;9.10;87.10
32506;DHT22;18955;51.224;8.482;2022-11-15T07:10:06;9.10;87.20
32506;DHT22;18955;51.224;8.482;2022-11-15T07:12:52;9.10;87.10
32506;DHT22;18955;51.224;8.482;2022-11-15T07:15:36;9.10;87.10
32506;DHT22;18955;51.224;8.482;2022-11-15T07:18:21;9.10;87.40
32506;DHT22;18955;51.224;8.482;2022-11-15T07:21:10;9.10;87.40
32506;DHT22;18955;51.224;8.482;2022-11-15T07:23:55;9.10;87.40
32506;DHT22;18955;51.224;8.482;2022-11-15T07:26:40;9.10;87.30
32506;DHT22;18955;51.224;8.482;2022-11-15T07:29:25;9.10;87.00
32506;DHT22;18955;51.224;8.482;2022-11-15T07:32:10;9.10;86.70
32506;DHT22;18955;51.224;8.482;2022-11-15T07:34:55;9.00;86.40
32506;DHT22;18955;51.224;8.482;2022-11-15T07:37:39;9.10;86.70
32506;DHT22;18955;51.224;8.482;2022-11-15T07:40:25;9.10;86.70
32506;DHT22;18955;51.224;8.482;2022-11-15T07:43:10;9.10;86.80
32506;DHT22;18955;51.224;8.482;2022-11-15T07:45:55;9.10;86.80
32506;DHT22;18955;51.224;8.482;2022-11-15T07:48:40;9.10;86.60
32506;DHT22;18955;51.224;8.482;2022-11-15T07:51:25;9.20;86.70
32506;DHT22;18955;51.224;8.482;2022-11-15T07:54:09;9.10;86.70
32506;DHT22;18955;51.224;8.482;2022-11-15T07:56:54;9.10;86.80
32506;DHT22;18955;51.224;8.482;2022-11-15T07:59:38;9.10;86.60
32506;DHT22;18955;51.224;8.482;2022-11-15T08:02:23;9.10;86.60
32506;DHT22;18955;51.224;8.482;2022-11-15T08:05:08;9.10;86.40
32506;DHT22;18955;51.224;8.482;2022-11-15T08:07:55;9.10;86.40
32506;DHT22;18955;51.224;8.482;2022-11-15T08:10:40;9.10;86.40
32506;DHT22;18955;51.224;8.482;2022-11-15T08:13:25;9.10;86.50
32506;DHT22;18955;51.224;8.482;2022-11-15T08:16:09;9.20;86.50
32506;DHT22;18955;51.224;8.482;2022-11-15T08:18:56;9.10;86.30
32506;DHT22;18955;51.224;8.482;2022-11-15T08:21:41;9.20;86.30
32506;DHT22;18955;51.224;8.482;2022-11-15T08:24:25;9.20;86.30
32506;DHT22;18955;51.224;8.482;2022-11-15T08:27:10;9.10;86.30
32506;DHT22;18955;51.224;8.482;2022-11-15T08:29:59;9.10;86.30
32506;DHT22;18955;51.224;8.482;2022-11-15T08:32:43;9.20;86.30
32506;DHT22;18955;51.224;8.482;2022-11-15T08:35:28;9.20;86.30
32506;DHT22;18955;51.224;8.482;2022-11-15T08:38:13;9.20;86.30
32506;DHT22;18955;51.224;8.482;2022-11-15T08:41:01;9.20;86.20
32506;DHT22;18955;51.224;8.482;2022-11-15T08:43:47;9.20;86.20
32506;DHT22;18955;51.224;8.482;2022-11-15T08:46:32;9.20;86.20
32506;DHT22;18955;51.224;8.482;2022-11-15T08:49:16;9.20;86.30
32506;DHT22;18955;51.224;8.482;2022-11-15T08:52:02;9.20;86.20
32506;DHT22;18955;51.224;8.482;2022-11-15T08:54:47;9.20;86.30
32506;DHT22;18955;51.224;8.482;2022-11-15T08:57:32;9.20;86.30
32506;DHT22;18955;51.224;8.482;2022-11-15T09:00:16;9.20;86.30
32506;DHT22;18955;51.224;8.482;2022-11-15T09:03:04;9.20;86.30
32506;DHT22;18955;51.224;8.482;2022-11-15T09:05:57;9.20;86.40
32506;DHT22;18955;51.224;8.482;2022-11-15T09:08:42;9.20;86.40
32506;DHT22;18955;51.224;8.482;2022-11-15T09:11:26;9.20;86.30
32506;DHT22;18955;51.224;8.482;2022-11-15T09:14:12;9.20;86.20
32506;DHT22;18955;51.224;8.482;2022-11-15T09:16:57;9.30;86.20
32506;DHT22;18955;51.224;8.482;2022-11-15T09:19:42;9.30;86.80
32506;DHT22;18955;51.224;8.482;2022-11-15T09:22:27;9.30;86.30
32506;DHT22;18955;51.224;8.482;2022-11-15T09:25:12;9.30;86.50
32506;DHT22;18955;51.224;8.482;2022-11-15T09:27:57;9.20;86.40
32506;DHT22;18955;51.224;8.482;2022-11-15T09:30:42;9.20;86.40
32506;DHT22;18955;51.224;8.482;2022-11-15T09:33:27;9.20;86.40
32506;DHT22;18955;51.224;8.482;2022-11-15T09:36:12;9.30;87.00
32506;DHT22;18955;51.224;8.482;2022-11-15T09:38:58;9.30;87.10
32506;DHT22;18955;51.224;8.482;2022-11-15T09:48:57;9.30;86.20
32506;DHT22;18955;51.224;8.482;2022-11-15T09:51:32;9.30;86.30
32506;DHT22;18955;51.224;8.482;2022-11-15T09:54:49;9.30;86.30
32506;DHT22;18955;51.224;8.482;2022-11-15T09:56:50;9.30;86.30
32506;DHT22;18955;51.224;8.482;2022-11-15T09:59:23;9.30;86.40
32506;DHT22;18955;51.224;8.482;2022-11-15T10:04:58;9.30;86.30
32506;DHT22;18955;51.224;8.482;2022-11-15T10:12:56;9.30;86.50
32506;DHT22;18955;51.224;8.482;2022-11-15T10:15:22;9.30;86.30
32506;DHT22;18955;51.224;8.482;2022-11-15T10:22:54;9.40;86.20
32506;DHT22;18955;51.224;8.482;2022-11-15T10:25:27;9.40;86.20
32506;DHT22;18955;51.224;8.482;2022-11-15T10:30:37;9.40;86.20
32506;DHT22;18955;51.224;8.482;2022-11-15T10:33:32;9.40;86.30
32506;DHT22;18955;51.224;8.482;2022-11-15T10:36:17;9.40;86.20
32506;DHT22;18955;51.224;8.482;2022-11-15T10:41:21;9.40;86.20
32506;DHT22;18955;51.224;8.482;2022-11-15T10:46:35;9.40;86.30
32506;DHT22;18955;51.224;8.482;2022-11-15T10:56:59;9.50;86.30
32506;DHT22;18955;51.224;8.482;2022-11-15T10:59:33;9.50;86.20
32506;DHT22;18955;51.224;8.482;2022-11-15T11:02:00;9.50;86.30
32506;DHT22;18955;51.224;8.482;2022-11-15T11:04:26;9.50;86.30
32506;DHT22;18955;51.224;8.482;2022-11-15T11:06:54;9.50;86.30
32506;DHT22;18955;51.224;8.482;2022-11-15T11:09:39;9.50;86.30
32506;DHT22;18955;51.224;8.482;2022-11-15T11:12:10;9.60;86.40
32506;DHT22;18955;51.224;8.482;2022-11-15T11:14:38;9.60;86.30
32506;DHT22;18955;51.224;8.482;2022-11-15T11:23:14;9.60;86.20
32506;DHT22;18955;51.224;8.482;2022-11-15T11:28:38;9.60;86.10
32506;DHT22;18955;51.224;8.482;2022-11-15T11:34:13;9.60;86.00
32506;DHT22;18955;51.224;8.482;2022-11-15T11:51:22;9.70;85.80
32506;DHT22;18955;51.224;8.482;2022-11-15T11:56:50;9.80;85.70
32506;DHT22;18955;51.224;8.482;2022-11-15T12:01:52;9.90;85.60
32506;DHT22;18955;51.224;8.482;2022-11-15T12:04:24;9.90;85.60
32506;DHT22;18955;51.224;8.482;2022-11-15T12:07:00;9.90;85.50
32506;DHT22;18955;51.224;8.482;2022-11-15T12:09:36;10.00;85.50
32506;DHT22;18955;51.224;8.482;2022-11-15T12:12:07;10.00;85.50
32506;DHT22;18955;51.224;8.482;2022-11-15T12:14:55;10.00;85.40
32506;DHT22;18955;51.224;8.482;2022-11-15T12:17:24;10.00;85.30
32506;DHT22;18955;51.224;8.482;2022-11-15T12:19:55;10.10;85.30
32506;DHT22;18955;51.224;8.482;2022-11-15T12:30:56;10.20;84.90
32506;DHT22;18955;51.224;8.482;2022-11-15T12:33:38;10.30;84.90
32506;DHT22;18955;51.224;8.482;2022-11-15T12:36:08;10.30;84.90
32506;DHT22;18955;51.224;8.482;2022-11-15T12:41:25;10.30;84.90
32506;DHT22;18955;51.224;8.482;2022-11-15T12:43:52;10.30;84.60
32506;DHT22;18955;51.224;8.482;2022-11-15T12:46:19;10.30;84.60
32506;DHT22;18955;51.224;8.482;2022-11-15T12:51:16;10.30;84.80
32506;DHT22;18955;51.224;8.482;2022-11-15T12:53:42;10.30;85.00
32506;DHT22;18955;51.224;8.482;2022-11-15T13:04:23;10.40;85.10
32506;DHT22;18955;51.224;8.482;2022-11-15T13:06:56;10.30;85.20
32506;DHT22;18955;51.224;8.482;2022-11-15T13:12:10;10.40;85.20
32506;DHT22;18955;51.224;8.482;2022-11-15T13:17:24;10.40;85.20
32506;DHT22;18955;51.224;8.482;2022-11-15T13:22:39;10.40;85.20
32506;DHT22;18955;51.224;8.482;2022-11-15T13:30:37;10.40;85.30
32506;DHT22;18955;51.224;8.482;2022-11-15T13:33:16;10.40;85.30
32506;DHT22;18955;51.224;8.482;2022-11-15T13:35:46;10.40;85.30
32506;DHT22;18955;51.224;8.482;2022-11-15T13:40:52;10.40;85.30
32506;DHT22;18955;51.224;8.482;2022-11-15T13:46:12;10.40;85.30
32506;DHT22;18955;51.224;8.482;2022-11-15T13:48:40;10.40;85.30
32506;DHT22;18955;51.224;8.482;2022-11-15T13:56:27;10.40;85.20
32506;DHT22;18955;51.224;8.482;2022-11-15T13:58:54;10.50;85.30
32506;DHT22;18955;51.224;8.482;2022-11-15T14:01:21;10.50;85.30
32506;DHT22;18955;51.224;8.482;2022-11-15T14:03:57;10.40;85.20
32506;DHT22;18955;51.224;8.482;2022-11-15T14:06:26;10.40;85.10
32506;DHT22;18955;51.224;8.482;2022-11-15T14:11:56;10.40;85.00
32506;DHT22;18955;51.224;8.482;2022-11-15T14:14:24;10.50;85.10
32506;DHT22;18955;51.224;8.482;2022-11-15T14:16:56;10.40;85.00
32506;DHT22;18955;51.224;8.482;2022-11-15T14:22:12;10.50;85.10
32506;DHT22;18955;51.224;8.482;2022-11-15T14:24:40;10.50;85.00
32506;DHT22;18955;51.224;8.482;2022-11-15T14:27:35;10.50;85.00
32506;DHT22;18955;51.224;8.482;2022-11-15T14:30:03;10.50;85.10
32506;DHT22;18955;51.224;8.482;2022-11-15T14:32:49;10.50;85.00
32506;DHT22;18955;51.224;8.482;2022-11-15T14:35:21;10.50;85.00
32506;DHT22;18955;51.224;8.482;2022-11-15T14:37:48;10.50;85.10
32506;DHT22;18955;51.224;8.482;2022-11-15T14:40:19;10.50;85.10
32506;DHT22;18955;51.224;8.482;2022-11-15T14:42:48;10.50;85.20
32506;DHT22;18955;51.224;8.482;2022-11-15T14:45:19;10.50;85.20
32506;DHT22;18955;51.224;8.482;2022-11-15T14:47:46;10.50;85.20
32506;DHT22;18955;51.224;8.482;2022-11-15T14:50:13;10.50;85.20
32506;DHT22;18955;51.224;8.482;2022-11-15T14:52:40;10.50;85.10
32506;DHT22;18955;51.224;8.482;2022-11-15T14:55:33;10.50;85.20
32506;DHT22;18955;51.224;8.482;2022-11-15T14:58:03;10.50;85.20
32506;DHT22;18955;51.224;8.482;2022-11-15T15:00:32;10.50;85.30
32506;DHT22;18955;51.224;8.482;2022-11-15T15:02:58;10.50;85.30
32506;DHT22;18955;51.224;8.482;2022-11-15T15:05:31;10.50;85.30
32506;DHT22;18955;51.224;8.482;2022-11-15T15:07:58;10.50;85.30
32506;DHT22;18955;51.224;8.482;2022-11-15T15:10:27;10.50;85.30
32506;DHT22;18955;51.224;8.482;2022-11-15T15:12:53;10.50;85.30
32506;DHT22;18955;51.224;8.482;2022-11-15T15:15:35;10.50;85.30
32506;DHT22;18955;51.224;8.482;2022-11-15T15:18:05;10.50;85.30
32506;DHT22;18955;51.224;8.482;2022-11-15T15:20:43;10.50;85.30
32506;DHT22;18955;51.224;8.482;2022-11-15T15:23:18;10.50;85.30
32506;DHT22;18955;51.224;8.482;2022-11-15T15:25:51;10.50;85.30
32506;DHT22;18955;51.224;8.482;2022-11-15T15:28:18;10.50;85.30
32506;DHT22;18955;51.224;8.482;2022-11-15T15:30:44;10.50;85.40
32506;DHT22;18955;51.224;8.482;2022-11-15T15:33:11;10.50;85.40
32506;DHT22;18955;51.224;8.482;2022-11-15T15:35:37;10.40;85.40
32506;DHT22;18955;51.224;8.482;2022-11-15T15:38:03;10.50;85.40
32506;DHT22;18955;51.224;8.482;2022-11-15T15:40:32;10.50;85.40
32506;DHT22;18955;51.224;8.482;2022-11-15T15:42:59;10.50;85.40
32506;DHT22;18955;51.224;8.482;2022-11-15T15:45:26;10.40;85.40
32506;DHT22;18955;51.224;8.482;2022-11-15T15:47:53;10.50;85.40
32506;DHT22;18955;51.224;8.482;2022-11-15T15:50:37;10.50;85.40
32506;DHT22;18955;51.224;8.482;2022-11-15T15:53:04;10.50;85.50
32506;DHT22;18955;51.224;8.482;2022-11-15T15:55:31;10.50;85.50
32506;DHT22;18955;51.224;8.482;2022-11-15T15:57:57;10.50;85.50
32506;DHT22;18955;51.224;8.482;2022-11-15T16:00:25;10.40;85.50
32506;DHT22;18955;51.224;8.482;2022-11-15T16:02:55;10.40;85.50
32506;DHT22;18955;51.224;8.482;2022-11-15T16:05:22;10.40;85.50
32506;DHT22;18955;51.224;8.482;2022-11-15T16:07:48;10.40;85.50
32506;DHT22;18955;51.224;8.482;2022-11-15T16:10:22;10.40;85.50
32506;DHT22;18955;51.224;8.482;2022-11-15T16:12:48;10.40;85.60
32506;DHT22;18955;51.224;8.482;2022-11-15T16:15:15;10.40;85.50
32506;DHT22;18955;51.224;8.482;2022-11-15T16:17:47;10.40;85.50
32506;DHT22;18955;51.224;8.482;2022-11-15T16:20:23;10.40;85.50
32506;DHT22;18955;51.224;8.482;2022-11-15T16:22:49;10.40;85.60
32506;DHT22;18955;51.224;8.482;2022-11-15T16:25:16;10.40;85.60
32506;DHT22;18955;51.224;8.482;2022-11-15T16:27:42;10.40;85.60
32506;DHT22;18955;51.224;8.482;2022-11-15T16:30:15;10.40;85.60
32506;DHT22;18955;51.224;8.482;2022-11-15T16:32:42;10.40;85.60
32506;DHT22;18955;51.224;8.482;2022-11-15T16:35:19;10.30;85.40
32506;DHT22;18955;51.224;8.482;2022-11-15T16:37:45;10.40;85.50
32506;DHT22;18955;51.224;8.482;2022-11-15T16:40:26;10.40;85.50
32506;DHT22;18955;51.224;8.482;2022-11-15T16:42:52;10.40;85.60
32506;DHT22;18955;51.224;8.482;2022-11-15T16:45:18;10.40;85.60
32506;DHT22;18955;51.224;8.482;2022-11-15T16:47:45;10.40;85.60
32506;DHT22;18955;51.224;8.482;2022-11-15T16:50:21;10.30;85.50
32506;DHT22;18955;51.224;8.482;2022-11-15T16:52:55;10.40;85.60
32506;DHT22;18955;51.224;8.482;2022-11-15T16:55:23;10.30;85.60
32506;DHT22;18955;51.224;8.482;2022-11-15T16:57:50;10.30;85.60
32506;DHT22;18955;51.224;8.482;2022-11-15T17:00:17;10.30;85.50
32506;DHT22;18955;51.224;8.482;2022-11-15T17:02:45;10.30;85.50
32506;DHT22;18955;51.224;8.482;2022-11-15T17:05:11;10.30;85.50
32506;DHT22;18955;51.224;8.482;2022-11-15T17:07:39;10.30;85.60
32506;DHT22;18955;51.224;8.482;2022-11-15T17:10:07;10.30;85.60
32506;DHT22;18955;51.224;8.482;2022-11-15T17:12:34;10.30;85.50
32506;DHT22;18955;51.224;8.482;2022-11-15T17:15:02;10.30;85.60
32506;DHT22;18955;51.224;8.482;2022-11-15T17:17:30;10.30;85.60
32506;DHT22;18955;51.224;8.482;2022-11-15T17:19:57;10.30;85.60
32506;DHT22;18955;51.224;8.482;2022-11-15T17:22:23;10.30;85.70
32506;DHT22;18955;51.224;8.482;2022-11-15T17:24:49;10.30;86.10
32506;DHT22;18955;51.224;8.482;2022-11-15T17:27:15;10.30;85.60
32506;DHT22;18955;51.224;8.482;2022-11-15T17:29:42;10.30;85.60
32506;DHT22;18955;51.224;8.482;2022-11-15T17:32:08;10.20;85.60
32506;DHT22;18955;51.224;8.482;2022-11-15T17:34:34;10.30;85.70
32506;DHT22;18955;51.224;8.482;2022-11-15T17:37:00;10.20;85.60
32506;DHT22;18955;51.224;8.482;2022-11-15T17:39:27;10.20;85.50
32506;DHT22;18955;51.224;8.482;2022-11-15T17:41:53;10.20;85.70
32506;DHT22;18955;51.224;8.482;2022-11-15T17:44:19;10.20;85.60
32506;DHT22;18955;51.224;8.482;2022-11-15T17:46:45;10.20;85.70
32506;DHT22;18955;51.224;8.482;2022-11-15T17:49:11;10.20;85.60
32506;DHT22;18955;51.224;8.482;2022-11-15T17:51:38;10.20;85.70
32506;DHT22;18955;51.224;8.482;2022-11-15T17:54:04;10.20;85.80
32506;DHT22;18955;51.224;8.482;2022-11-15T17:56:30;10.20;85.80
32506;DHT22;18955;51.224;8.482;2022-11-15T17:58:58;10.20;85.90
32506;DHT22;18955;51.224;8.482;2022-11-15T18:01:33;10.20;85.80
32506;DHT22;18955;51.224;8.482;2022-11-15T18:04:02;10.20;85.90
32506;DHT22;18955;51.224;8.482;2022-11-15T18:06:31;10.20;85.90
32506;DHT22;18955;51.224;8.482;2022-11-15T18:08:58;10.20;85.70
32506;DHT22;18955;51.224;8.482;2022-11-15T18:11:26;10.20;85.80
32506;DHT22;18955;51.224;8.482;2022-11-15T18:13:58;10.20;86.00
32506;DHT22;18955;51.224;8.482;2022-11-15T18:16:27;10.20;85.90
32506;DHT22;18955;51.224;8.482;2022-11-15T18:18:53;10.20;85.80
32506;DHT22;18955;51.224;8.482;2022-11-15T18:21:22;10.20;86.00
32506;DHT22;18955;51.224;8.482;2022-11-15T18:23:52;10.20;86.00
32506;DHT22;18955;51.224;8.482;2022-11-15T18:26:19;10.20;86.00
32506;DHT22;18955;51.224;8.482;2022-11-15T18:28:47;10.20;85.90
32506;DHT22;18955;51.224;8.482;2022-11-15T18:31:18;10.20;85.90
32506;DHT22;18955;51.224;8.482;2022-11-15T18:33:46;10.10;85.90
32506;DHT22;18955;51.224;8.482;2022-11-15T18:36:16;10.20;85.90
32506;DHT22;18955;51.224;8.482;2022-11-15T18:38:42;10.20;86.00
32506;DHT22;18955;51.224;8.482;2022-11-15T18:41:14;10.20;86.00
32506;DHT22;18955;51.224;8.482;2022-11-15T18:43:43;10.20;85.90
32506;DHT22;18955;51.224;8.482;2022-11-15T18:46:12;10.20;86.00
32506;DHT22;18955;51.224;8.482;2022-11-15T18:48:41;10.10;85.90
32506;DHT22;18955;51.224;8.482;2022-11-15T18:51:14;10.10;85.80
32506;DHT22;18955;51.224;8.482;2022-11-15T18:53:41;10.10;86.00
32506;DHT22;18955;51.224;8.482;2022-11-15T18:56:11;10.10;85.90
32506;DHT22;18955;51.224;8.482;2022-11-15T18:58:48;10.10;86.00
32506;DHT22;18955;51.224;8.482;2022-11-15T19:01:15;10.10;85.90
32506;DHT22;18955;51.224;8.482;2022-11-15T19:03:44;10.10;85.80
32506;DHT22;18955;51.224;8.482;2022-11-15T19:06:13;10.10;86.00
32506;DHT22;18955;51.224;8.482;2022-11-15T19:08:40;10.10;85.90
32506;DHT22;18955;51.224;8.482;2022-11-15T19:11:09;10.10;86.00
32506;DHT22;18955;51.224;8.482;2022-11-15T19:13:35;10.10;86.10
32506;DHT22;18955;51.224;8.482;2022-11-15T19:16:03;10.10;85.90
32506;DHT22;18955;51.224;8.482;2022-11-15T19:18:30;10.10;85.90
32506;DHT22;18955;51.224;8.482;2022-11-15T19:21:04;10.10;86.00
32506;DHT22;18955;51.224;8.482;2022-11-15T19:23:35;10.10;86.00
32506;DHT22;18955;51.224;8.482;2022-11-15T19:26:02;10.10;86.10
32506;DHT22;18955;51.224;8.482;2022-11-15T19:28:29;10.10;86.10
32506;DHT22;18955;51.224;8.482;2022-11-15T19:31:03;10.10;85.90
32506;DHT22;18955;51.224;8.482;2022-11-15T19:33:30;10.10;86.00